sensor_id;sensor_type;location;lat;lon;timestamp;P1;durP1;ratioP1;P2;durP2;ratioP2
23730;SDS011;12046;44.702;10.622;2023-04-25T00:02:02;1.23;;;1.00;;
23730;SDS011;12046;44.702;10.622;2023-04-25T00:04:28;1.88;;;1.27;;
23730;SDS011;12046;44.702;10.622;2023-04-25T00:06:59;1.10;;;0.70;;
23730;SDS011;12046;44.702;10.622;2023-04-25T00:09:28;2.55;;;1.08;;
23730;SDS011;12046;44.702;10.622;2023-04-25T00:11:54;0.77;;;0.77;;
23730;SDS011;12046;44.702;10.622;2023-04-25T00:14:20;2.13;;;1.00;;
23730;SDS011;12046;44.702;10.622;2023-04-25T00:16:45;1.52;;;0.80;;
23730;SDS011;12046;44.702;10.622;2023-04-25T00:19:11;0.80;;;0.80;;
23730;SDS011;12046;44.702;10.622;2023-04-25T00:21:38;0.98;;;0.77;;
23730;SDS011;12046;44.702;10.622;2023-04-25T00:24:06;1.10;;;1.00;;
23730;SDS011;12046;44.702;10.622;2023-04-25T00:26:33;1.25;;;1.00;;
23730;SDS011;12046;44.702;10.622;2023-04-25T00:29:00;2.55;;;0.98;;
23730;SDS011;12046;44.702;10.622;2023-04-25T00:31:25;1.25;;;0.88;;
23730;SDS011;12046;44.702;10.622;2023-04-25T00:33:51;2.20;;;1.00;;
23730;SDS011;12046;44.702;10.622;2023-04-25T00:36:18;0.80;;;0.80;;
23730;SDS011;12046;44.702;10.622;2023-04-25T00:38:44;1.20;;;0.90;;
23730;SDS011;12046;44.702;10.622;2023-04-25T00:41:09;1.45;;;1.20;;
23730;SDS011;12046;44.702;10.622;2023-04-25T00:43:36;2.10;;;1.27;;
23730;SDS011;12046;44.702;10.622;2023-04-25T00:46:02;0.95;;;0.80;;
23730;SDS011;12046;44.702;10.622;2023-04-25T00:48:28;5.78;;;1.40;;
23730;SDS011;12046;44.702;10.622;2023-04-25T00:50:56;1.35;;;1.00;;
23730;SDS011;12046;44.702;10.622;2023-04-25T00:53:23;2.17;;;1.30;;
23730;SDS011;12046;44.702;10.622;2023-04-25T00:55:51;1.10;;;1.00;;
23730;SDS011;12046;44.702;10.622;2023-04-25T00:58:17;1.25;;;1.15;;
23730;SDS011;12046;44.702;10.622;2023-04-25T01:00:45;0.88;;;0.82;;
23730;SDS011;12046;44.702;10.622;2023-04-25T01:03:12;2.28;;;1.00;;
23730;SDS011;12046;44.702;10.622;2023-04-25T01:05:40;2.80;;;1.30;;
23730;SDS011;12046;44.702;10.622;2023-04-25T01:08:07;2.00;;;1.17;;
23730;SDS011;12046;44.702;10.622;2023-04-25T01:10:33;1.88;;;1.08;;
23730;SDS011;12046;44.702;10.622;2023-04-25T01:12:59;1.25;;;1.08;;
23730;SDS011;12046;44.702;10.622;2023-04-25T01:15:25;1.40;;;1.30;;
23730;SDS011;12046;44.702;10.622;2023-04-25T01:17:51;1.30;;;1.20;;
23730;SDS011;12046;44.702;10.622;2023-04-25T01:20:18;1.45;;;1.33;;
23730;SDS011;12046;44.702;10.622;2023-04-25T01:22:48;4.90;;;1.15;;
23730;SDS011;12046;44.702;10.622;2023-04-25T01:25:14;2.78;;;1.63;;
23730;SDS011;12046;44.702;10.622;2023-04-25T01:27:42;2.33;;;1.27;;
23730;SDS011;12046;44.702;10.622;2023-04-25T01:30:08;2.80;;;1.45;;
23730;SDS011;12046;44.702;10.622;2023-04-25T01:32:34;2.13;;;1.45;;
23730;SDS011;12046;44.702;10.622;2023-04-25T01:35:06;2.58;;;1.50;;
23730;SDS011;12046;44.702;10.622;2023-04-25T01:37:35;2.97;;;1.48;;
23730;SDS011;12046;44.702;10.622;2023-04-25T01:40:05;3.03;;;1.83;;
23730;SDS011;12046;44.702;10.622;2023-04-25T01:42:32;3.75;;;3.33;;
23730;SDS011;12046;44.702;10.622;2023-04-25T01:44:59;3.72;;;3.15;;
23730;SDS011;12046;44.702;10.622;2023-04-25T01:47:25;3.47;;;3.17;;
23730;SDS011;12046;44.702;10.622;2023-04-25T01:49:51;2.85;;;2.65;;
23730;SDS011;12046;44.702;10.622;2023-04-25T01:52:17;4.63;;;2.90;;
23730;SDS011;12046;44.702;10.622;2023-04-25T01:54:43;3.50;;;3.00;;
23730;SDS011;12046;44.702;10.622;2023-04-25T01:57:12;3.22;;;2.40;;
23730;SDS011;12046;44.702;10.622;2023-04-25T01:59:38;2.80;;;2.60;;
23730;SDS011;12046;44.702;10.622;2023-04-25T02:02:04;3.28;;;2.80;;
23730;SDS011;12046;44.702;10.622;2023-04-25T02:04:30;2.78;;;2.30;;
23730;SDS011;12046;44.702;10.622;2023-04-25T02:06:57;4.32;;;2.45;;
23730;SDS011;12046;44.702;10.622;2023-04-25T02:09:22;2.63;;;2.17;;
23730;SDS011;12046;44.702;10.622;2023-04-25T02:11:48;3.20;;;2.53;;
23730;SDS011;12046;44.702;10.622;2023-04-25T02:14:14;3.00;;;2.40;;
23730;SDS011;12046;44.702;10.622;2023-04-25T02:16:40;2.60;;;2.40;;
23730;SDS011;12046;44.702;10.622;2023-04-25T02:19:06;2.65;;;2.20;;
23730;SDS011;12046;44.702;10.622;2023-04-25T02:21:32;3.55;;;2.50;;
23730;SDS011;12046;44.702;10.622;2023-04-25T02:24:00;2.40;;;2.20;;
23730;SDS011;12046;44.702;10.622;2023-04-25T02:26:26;2.95;;;1.95;;
23730;SDS011;12046;44.702;10.622;2023-04-25T02:28:52;3.55;;;2.45;;
23730;SDS011;12046;44.702;10.622;2023-04-25T02:31:18;2.72;;;2.30;;
23730;SDS011;12046;44.702;10.622;2023-04-25T02:33:44;3.92;;;2.13;;
23730;SDS011;12046;44.702;10.622;2023-04-25T02:36:09;2.47;;;2.28;;
23730;SDS011;12046;44.702;10.622;2023-04-25T02:38:35;2.40;;;2.20;;
23730;SDS011;12046;44.702;10.622;2023-04-25T02:41:01;2.83;;;2.17;;
23730;SDS011;12046;44.702;10.622;2023-04-25T02:43:27;2.70;;;2.28;;
23730;SDS011;12046;44.702;10.622;2023-04-25T02:45:53;5.05;;;2.47;;
23730;SDS011;12046;44.702;10.622;2023-04-25T02:48:18;2.92;;;2.60;;
23730;SDS011;12046;44.702;10.622;2023-04-25T02:50:44;2.45;;;2.15;;
23730;SDS011;12046;44.702;10.622;2023-04-25T02:53:10;3.70;;;2.33;;
23730;SDS011;12046;44.702;10.622;2023-04-25T02:55:36;3.08;;;2.40;;
23730;SDS011;12046;44.702;10.622;2023-04-25T02:58:02;2.63;;;2.05;;
23730;SDS011;12046;44.702;10.622;2023-04-25T03:00:29;4.80;;;2.45;;
23730;SDS011;12046;44.702;10.622;2023-04-25T03:02:55;4.03;;;3.00;;
23730;SDS011;12046;44.702;10.622;2023-04-25T03:05:21;2.90;;;2.53;;
23730;SDS011;12046;44.702;10.622;2023-04-25T03:07:46;3.78;;;2.33;;
23730;SDS011;12046;44.702;10.622;2023-04-25T03:10:12;4.68;;;2.83;;
23730;SDS011;12046;44.702;10.622;2023-04-25T03:12:38;2.70;;;1.95;;
23730;SDS011;12046;44.702;10.622;2023-04-25T03:15:04;2.10;;;1.90;;
23730;SDS011;12046;44.702;10.622;2023-04-25T03:17:30;2.63;;;2.38;;
23730;SDS011;12046;44.702;10.622;2023-04-25T03:19:57;5.93;;;2.97;;
23730;SDS011;12046;44.702;10.622;2023-04-25T03:22:22;2.65;;;2.45;;
23730;SDS011;12046;44.702;10.622;2023-04-25T03:24:49;2.72;;;2.38;;
23730;SDS011;12046;44.702;10.622;2023-04-25T03:27:15;3.15;;;2.22;;
23730;SDS011;12046;44.702;10.622;2023-04-25T03:29:41;2.65;;;2.35;;
23730;SDS011;12046;44.702;10.622;2023-04-25T03:32:07;2.58;;;2.38;;
23730;SDS011;12046;44.702;10.622;2023-04-25T03:34:33;2.95;;;2.50;;
23730;SDS011;12046;44.702;10.622;2023-04-25T03:36:58;3.15;;;2.10;;
23730;SDS011;12046;44.702;10.622;2023-04-25T03:39:25;2.47;;;2.28;;
23730;SDS011;12046;44.702;10.622;2023-04-25T03:41:50;4.78;;;2.60;;
23730;SDS011;12046;44.702;10.622;2023-04-25T03:44:16;3.90;;;2.53;;
23730;SDS011;12046;44.702;10.622;2023-04-25T03:46:42;3.10;;;2.33;;
23730;SDS011;12046;44.702;10.622;2023-04-25T03:49:08;4.32;;;2.45;;
23730;SDS011;12046;44.702;10.622;2023-04-25T03:51:34;2.70;;;2.30;;
23730;SDS011;12046;44.702;10.622;2023-04-25T03:53:59;4.63;;;2.70;;
23730;SDS011;12046;44.702;10.622;2023-04-25T03:56:26;4.72;;;2.45;;
23730;SDS011;12046;44.702;10.622;2023-04-25T03:58:51;2.75;;;2.55;;
23730;SDS011;12046;44.702;10.622;2023-04-25T04:01:17;2.45;;;2.25;;
23730;SDS011;12046;44.702;10.622;2023-04-25T04:03:43;2.55;;;2.30;;
23730;SDS011;12046;44.702;10.622;2023-04-25T04:06:08;3.55;;;2.28;;
23730;SDS011;12046;44.702;10.622;2023-04-25T04:08:35;3.40;;;2.38;;
23730;SDS011;12046;44.702;10.622;2023-04-25T04:11:01;2.97;;;2.65;;
23730;SDS011;12046;44.702;10.622;2023-04-25T04:13:27;6.20;;;2.65;;
23730;SDS011;12046;44.702;10.622;2023-04-25T04:15:54;3.58;;;2.22;;
23730;SDS011;12046;44.702;10.622;2023-04-25T04:18:20;2.17;;;2.05;;
23730;SDS011;12046;44.702;10.622;2023-04-25T04:20:47;3.90;;;2.40;;
23730;SDS011;12046;44.702;10.622;2023-04-25T04:23:12;2.35;;;2.15;;
23730;SDS011;12046;44.702;10.622;2023-04-25T04:25:38;4.40;;;2.33;;
23730;SDS011;12046;44.702;10.622;2023-04-25T04:28:05;2.60;;;2.40;;
23730;SDS011;12046;44.702;10.622;2023-04-25T04:30:32;2.90;;;2.42;;
23730;SDS011;12046;44.702;10.622;2023-04-25T04:33:01;3.60;;;2.30;;
23730;SDS011;12046;44.702;10.622;2023-04-25T04:35:28;4.10;;;2.65;;
23730;SDS011;12046;44.702;10.622;2023-04-25T04:37:54;2.80;;;2.60;;
23730;SDS011;12046;44.702;10.622;2023-04-25T04:40:20;5.93;;;2.70;;
23730;SDS011;12046;44.702;10.622;2023-04-25T04:42:47;4.05;;;2.35;;
23730;SDS011;12046;44.702;10.622;2023-04-25T04:45:13;2.67;;;2.47;;
23730;SDS011;12046;44.702;10.622;2023-04-25T04:47:39;4.93;;;2.45;;
23730;SDS011;12046;44.702;10.622;2023-04-25T04:50:06;3.83;;;2.45;;
23730;SDS011;12046;44.702;10.622;2023-04-25T04:52:37;2.60;;;2.40;;
23730;SDS011;12046;44.702;10.622;2023-04-25T04:55:04;3.67;;;2.15;;
23730;SDS011;12046;44.702;10.622;2023-04-25T04:57:30;4.30;;;2.50;;
23730;SDS011;12046;44.702;10.622;2023-04-25T04:59:58;3.33;;;2.35;;
23730;SDS011;12046;44.702;10.622;2023-04-25T05:02:24;2.85;;;2.35;;
23730;SDS011;12046;44.702;10.622;2023-04-25T05:04:50;5.25;;;2.67;;
23730;SDS011;12046;44.702;10.622;2023-04-25T05:07:17;4.05;;;2.53;;
23730;SDS011;12046;44.702;10.622;2023-04-25T05:09:43;3.13;;;2.70;;
23730;SDS011;12046;44.702;10.622;2023-04-25T05:12:09;3.63;;;2.13;;
23730;SDS011;12046;44.702;10.622;2023-04-25T05:14:35;5.18;;;2.63;;
23730;SDS011;12046;44.702;10.622;2023-04-25T05:17:00;3.33;;;2.50;;
23730;SDS011;12046;44.702;10.622;2023-04-25T05:19:28;2.78;;;2.03;;
23730;SDS011;12046;44.702;10.622;2023-04-25T05:21:54;4.53;;;2.20;;
23730;SDS011;12046;44.702;10.622;2023-04-25T05:24:20;2.33;;;1.92;;
23730;SDS011;12046;44.702;10.622;2023-04-25T05:26:46;4.05;;;2.00;;
23730;SDS011;12046;44.702;10.622;2023-04-25T05:29:11;4.13;;;2.20;;
23730;SDS011;12046;44.702;10.622;2023-04-25T05:31:37;4.82;;;2.60;;
23730;SDS011;12046;44.702;10.622;2023-04-25T05:34:03;3.67;;;2.05;;
23730;SDS011;12046;44.702;10.622;2023-04-25T05:36:28;2.08;;;1.77;;
23730;SDS011;12046;44.702;10.622;2023-04-25T05:38:56;3.08;;;2.35;;
23730;SDS011;12046;44.702;10.622;2023-04-25T05:41:21;2.60;;;2.30;;
23730;SDS011;12046;44.702;10.622;2023-04-25T05:43:47;3.25;;;2.20;;
23730;SDS011;12046;44.702;10.622;2023-04-25T05:46:14;4.53;;;2.40;;
23730;SDS011;12046;44.702;10.622;2023-04-25T05:48:43;4.88;;;2.30;;
23730;SDS011;12046;44.702;10.622;2023-04-25T05:51:09;9.25;;;2.60;;
23730;SDS011;12046;44.702;10.622;2023-04-25T05:53:35;2.72;;;2.40;;
23730;SDS011;12046;44.702;10.622;2023-04-25T05:56:01;6.32;;;2.65;;
23730;SDS011;12046;44.702;10.622;2023-04-25T05:58:27;2.75;;;2.33;;
23730;SDS011;12046;44.702;10.622;2023-04-25T06:00:52;3.20;;;2.60;;
23730;SDS011;12046;44.702;10.622;2023-04-25T06:03:18;8.82;;;3.00;;
23730;SDS011;12046;44.702;10.622;2023-04-25T06:05:44;2.47;;;2.28;;
23730;SDS011;12046;44.702;10.622;2023-04-25T06:08:10;4.40;;;2.80;;
23730;SDS011;12046;44.702;10.622;2023-04-25T06:10:36;4.13;;;2.90;;
23730;SDS011;12046;44.702;10.622;2023-04-25T06:13:02;7.00;;;2.90;;
23730;SDS011;12046;44.702;10.622;2023-04-25T06:15:29;3.92;;;3.10;;
23730;SDS011;12046;44.702;10.622;2023-04-25T06:17:55;3.53;;;2.75;;
23730;SDS011;12046;44.702;10.622;2023-04-25T06:20:20;3.75;;;2.83;;
23730;SDS011;12046;44.702;10.622;2023-04-25T06:25:24;2.90;;;2.70;;
23730;SDS011;12046;44.702;10.622;2023-04-25T06:27:50;4.38;;;3.00;;
23730;SDS011;12046;44.702;10.622;2023-04-25T06:30:16;4.90;;;2.80;;
23730;SDS011;12046;44.702;10.622;2023-04-25T06:32:43;4.60;;;2.95;;
23730;SDS011;12046;44.702;10.622;2023-04-25T06:35:09;6.22;;;3.10;;
23730;SDS011;12046;44.702;10.622;2023-04-25T06:37:35;4.13;;;3.20;;
23730;SDS011;12046;44.702;10.622;2023-04-25T06:40:01;4.82;;;2.90;;
23730;SDS011;12046;44.702;10.622;2023-04-25T06:42:27;5.82;;;3.17;;
23730;SDS011;12046;44.702;10.622;2023-04-25T06:44:56;7.03;;;4.13;;
23730;SDS011;12046;44.702;10.622;2023-04-25T06:47:21;4.85;;;3.78;;
23730;SDS011;12046;44.702;10.622;2023-04-25T06:49:47;5.18;;;3.30;;
23730;SDS011;12046;44.702;10.622;2023-04-25T06:52:13;5.65;;;4.10;;
23730;SDS011;12046;44.702;10.622;2023-04-25T06:54:39;4.93;;;3.85;;
23730;SDS011;12046;44.702;10.622;2023-04-25T06:57:04;7.13;;;4.00;;
23730;SDS011;12046;44.702;10.622;2023-04-25T06:59:30;5.53;;;3.35;;
23730;SDS011;12046;44.702;10.622;2023-04-25T07:01:56;4.55;;;3.25;;
23730;SDS011;12046;44.702;10.622;2023-04-25T07:04:22;6.30;;;3.55;;
23730;SDS011;12046;44.702;10.622;2023-04-25T07:06:47;4.05;;;3.08;;
23730;SDS011;12046;44.702;10.622;2023-04-25T07:09:14;4.55;;;3.40;;
23730;SDS011;12046;44.702;10.622;2023-04-25T07:11:40;3.55;;;3.25;;
23730;SDS011;12046;44.702;10.622;2023-04-25T07:14:06;4.35;;;3.42;;
23730;SDS011;12046;44.702;10.622;2023-04-25T07:16:31;4.75;;;3.72;;
23730;SDS011;12046;44.702;10.622;2023-04-25T07:18:57;6.88;;;3.58;;
23730;SDS011;12046;44.702;10.622;2023-04-25T07:21:24;4.97;;;3.50;;
23730;SDS011;12046;44.702;10.622;2023-04-25T07:23:50;5.70;;;3.80;;
23730;SDS011;12046;44.702;10.622;2023-04-25T07:26:16;6.55;;;4.00;;
23730;SDS011;12046;44.702;10.622;2023-04-25T07:28:42;7.88;;;4.30;;
23730;SDS011;12046;44.702;10.622;2023-04-25T07:31:08;4.90;;;3.67;;
23730;SDS011;12046;44.702;10.622;2023-04-25T07:33:34;4.90;;;4.50;;
23730;SDS011;12046;44.702;10.622;2023-04-25T07:36:00;6.68;;;5.85;;
23730;SDS011;12046;44.702;10.622;2023-04-25T07:38:26;8.68;;;5.43;;
23730;SDS011;12046;44.702;10.622;2023-04-25T07:40:51;7.32;;;6.03;;
23730;SDS011;12046;44.702;10.622;2023-04-25T07:43:17;5.53;;;5.00;;
23730;SDS011;12046;44.702;10.622;2023-04-25T07:45:43;8.00;;;5.50;;
23730;SDS011;12046;44.702;10.622;2023-04-25T07:48:10;5.75;;;5.10;;
23730;SDS011;12046;44.702;10.622;2023-04-25T07:50:36;5.32;;;4.72;;
23730;SDS011;12046;44.702;10.622;2023-04-25T07:53:02;5.35;;;4.85;;
23730;SDS011;12046;44.702;10.622;2023-04-25T07:55:28;5.35;;;4.85;;
23730;SDS011;12046;44.702;10.622;2023-04-25T07:57:54;5.40;;;4.90;;
23730;SDS011;12046;44.702;10.622;2023-04-25T08:00:20;5.60;;;4.53;;
23730;SDS011;12046;44.702;10.622;2023-04-25T08:02:45;4.85;;;4.35;;
23730;SDS011;12046;44.702;10.622;2023-04-25T08:05:11;4.75;;;4.30;;
23730;SDS011;12046;44.702;10.622;2023-04-25T08:07:39;5.63;;;4.63;;
23730;SDS011;12046;44.702;10.622;2023-04-25T08:10:06;4.18;;;3.63;;
23730;SDS011;12046;44.702;10.622;2023-04-25T08:12:33;5.55;;;3.00;;
23730;SDS011;12046;44.702;10.622;2023-04-25T08:14:58;2.80;;;2.30;;
23730;SDS011;12046;44.702;10.622;2023-04-25T08:17:24;3.28;;;2.20;;
23730;SDS011;12046;44.702;10.622;2023-04-25T08:19:50;3.85;;;1.80;;
23730;SDS011;12046;44.702;10.622;2023-04-25T08:22:16;2.03;;;1.27;;
23730;SDS011;12046;44.702;10.622;2023-04-25T08:24:43;2.22;;;1.05;;
23730;SDS011;12046;44.702;10.622;2023-04-25T08:27:08;1.08;;;0.50;;
23730;SDS011;12046;44.702;10.622;2023-04-25T08:29:34;2.83;;;0.60;;
23730;SDS011;12046;44.702;10.622;2023-04-25T08:32:00;1.50;;;0.57;;
23730;SDS011;12046;44.702;10.622;2023-04-25T08:34:26;0.95;;;0.45;;
23730;SDS011;12046;44.702;10.622;2023-04-25T08:36:52;1.08;;;0.40;;
23730;SDS011;12046;44.702;10.622;2023-04-25T08:39:18;3.33;;;0.52;;
23730;SDS011;12046;44.702;10.622;2023-04-25T08:41:44;0.65;;;0.40;;
23730;SDS011;12046;44.702;10.622;2023-04-25T08:44:10;2.00;;;0.30;;
23730;SDS011;12046;44.702;10.622;2023-04-25T08:46:40;1.52;;;0.32;;
23730;SDS011;12046;44.702;10.622;2023-04-25T08:49:06;1.17;;;0.47;;
23730;SDS011;12046;44.702;10.622;2023-04-25T08:51:34;0.60;;;0.30;;
23730;SDS011;12046;44.702;10.622;2023-04-25T08:54:11;1.00;;;0.50;;
23730;SDS011;12046;44.702;10.622;2023-04-25T08:56:40;1.10;;;0.20;;
23730;SDS011;12046;44.702;10.622;2023-04-25T08:59:09;1.75;;;0.38;;
23730;SDS011;12046;44.702;10.622;2023-04-25T09:01:36;4.00;;;0.32;;
23730;SDS011;12046;44.702;10.622;2023-04-25T09:04:02;0.73;;;0.40;;
23730;SDS011;12046;44.702;10.622;2023-04-25T09:06:31;4.05;;;0.40;;
23730;SDS011;12046;44.702;10.622;2023-04-25T09:09:05;0.30;;;0.25;;
23730;SDS011;12046;44.702;10.622;2023-04-25T09:11:32;1.00;;;0.28;;
23730;SDS011;12046;44.702;10.622;2023-04-25T09:14:19;1.67;;;0.25;;
23730;SDS011;12046;44.702;10.622;2023-04-25T09:19:42;0.30;;;0.30;;
23730;SDS011;12046;44.702;10.622;2023-04-25T09:22:09;0.68;;;0.20;;
23730;SDS011;12046;44.702;10.622;2023-04-25T09:24:36;0.77;;;0.40;;
23730;SDS011;12046;44.702;10.622;2023-04-25T09:27:06;0.40;;;0.40;;
23730;SDS011;12046;44.702;10.622;2023-04-25T09:29:37;1.02;;;0.57;;
23730;SDS011;12046;44.702;10.622;2023-04-25T09:34:46;1.73;;;0.40;;
23730;SDS011;12046;44.702;10.622;2023-04-25T09:37:21;2.40;;;0.45;;
23730;SDS011;12046;44.702;10.622;2023-04-25T09:39:48;1.77;;;0.43;;
23730;SDS011;12046;44.702;10.622;2023-04-25T09:42:15;2.65;;;0.77;;
23730;SDS011;12046;44.702;10.622;2023-04-25T09:44:42;1.40;;;0.50;;
23730;SDS011;12046;44.702;10.622;2023-04-25T09:47:10;1.10;;;0.63;;
23730;SDS011;12046;44.702;10.622;2023-04-25T09:49:38;2.22;;;0.60;;
23730;SDS011;12046;44.702;10.622;2023-04-25T09:52:06;2.03;;;0.70;;
23730;SDS011;12046;44.702;10.622;2023-04-25T09:54:32;1.85;;;0.70;;
23730;SDS011;12046;44.702;10.622;2023-04-25T09:56:57;1.90;;;0.70;;
23730;SDS011;12046;44.702;10.622;2023-04-25T09:59:38;1.63;;;0.60;;
23730;SDS011;12046;44.702;10.622;2023-04-25T10:02:07;1.55;;;0.50;;
23730;SDS011;12046;44.702;10.622;2023-04-25T10:04:34;2.47;;;0.73;;
23730;SDS011;12046;44.702;10.622;2023-04-25T10:07:02;2.03;;;0.57;;
23730;SDS011;12046;44.702;10.622;2023-04-25T10:09:31;1.45;;;0.90;;
23730;SDS011;12046;44.702;10.622;2023-04-25T10:12:00;2.80;;;0.80;;
23730;SDS011;12046;44.702;10.622;2023-04-25T10:14:29;1.63;;;0.75;;
23730;SDS011;12046;44.702;10.622;2023-04-25T10:16:57;2.42;;;1.00;;
23730;SDS011;12046;44.702;10.622;2023-04-25T10:19:24;1.02;;;0.80;;
23730;SDS011;12046;44.702;10.622;2023-04-25T10:22:13;1.70;;;1.30;;
23730;SDS011;12046;44.702;10.622;2023-04-25T10:24:45;1.10;;;0.70;;
23730;SDS011;12046;44.702;10.622;2023-04-25T10:27:12;1.23;;;0.47;;
23730;SDS011;12046;44.702;10.622;2023-04-25T10:29:38;1.50;;;0.68;;
23730;SDS011;12046;44.702;10.622;2023-04-25T10:32:07;3.90;;;0.80;;
23730;SDS011;12046;44.702;10.622;2023-04-25T10:34:40;4.13;;;0.80;;
23730;SDS011;12046;44.702;10.622;2023-04-25T10:37:08;1.77;;;0.52;;
23730;SDS011;12046;44.702;10.622;2023-04-25T10:39:35;1.10;;;0.70;;
23730;SDS011;12046;44.702;10.622;2023-04-25T10:42:06;1.85;;;0.60;;
23730;SDS011;12046;44.702;10.622;2023-04-25T10:44:33;3.28;;;0.60;;
23730;SDS011;12046;44.702;10.622;2023-04-25T10:47:00;1.27;;;0.90;;
23730;SDS011;12046;44.702;10.622;2023-04-25T10:49:28;0.70;;;0.70;;
23730;SDS011;12046;44.702;10.622;2023-04-25T11:00:39;1.60;;;0.80;;
23730;SDS011;12046;44.702;10.622;2023-04-25T11:02:57;1.95;;;0.70;;
23730;SDS011;12046;44.702;10.622;2023-04-25T11:07:57;0.52;;;0.50;;
23730;SDS011;12046;44.702;10.622;2023-04-25T11:10:28;1.73;;;0.50;;
23730;SDS011;12046;44.702;10.622;2023-04-25T11:12:55;1.13;;;0.50;;
23730;SDS011;12046;44.702;10.622;2023-04-25T11:15:21;0.40;;;0.40;;
23730;SDS011;12046;44.702;10.622;2023-04-25T11:17:47;0.50;;;0.50;;
23730;SDS011;12046;44.702;10.622;2023-04-25T11:20:13;0.73;;;0.50;;
23730;SDS011;12046;44.702;10.622;2023-04-25T11:22:40;0.60;;;0.50;;
23730;SDS011;12046;44.702;10.622;2023-04-25T11:25:10;0.70;;;0.60;;
23730;SDS011;12046;44.702;10.622;2023-04-25T11:30:15;0.75;;;0.50;;
23730;SDS011;12046;44.702;10.622;2023-04-25T11:32:41;0.80;;;0.60;;
23730;SDS011;12046;44.702;10.622;2023-04-25T11:35:08;0.57;;;0.40;;
23730;SDS011;12046;44.702;10.622;2023-04-25T11:37:34;0.45;;;0.45;;
23730;SDS011;12046;44.702;10.622;2023-04-25T11:40:03;2.80;;;0.85;;
23730;SDS011;12046;44.702;10.622;2023-04-25T11:42:31;2.72;;;0.60;;
23730;SDS011;12046;44.702;10.622;2023-04-25T11:44:58;0.90;;;0.70;;
23730;SDS011;12046;44.702;10.622;2023-04-25T11:47:28;1.67;;;0.63;;
23730;SDS011;12046;44.702;10.622;2023-04-25T11:49:55;1.35;;;0.63;;
23730;SDS011;12046;44.702;10.622;2023-04-25T11:52:20;1.15;;;0.90;;
23730;SDS011;12046;44.702;10.622;2023-04-25T11:54:46;2.15;;;0.82;;
23730;SDS011;12046;44.702;10.622;2023-04-25T11:57:12;2.10;;;0.90;;
23730;SDS011;12046;44.702;10.622;2023-04-25T11:59:39;4.03;;;1.10;;
23730;SDS011;12046;44.702;10.622;2023-04-25T12:02:05;1.55;;;1.00;;
23730;SDS011;12046;44.702;10.622;2023-04-25T12:04:32;1.55;;;1.13;;
23730;SDS011;12046;44.702;10.622;2023-04-25T12:06:57;2.10;;;1.10;;
23730;SDS011;12046;44.702;10.622;2023-04-25T12:09:32;1.58;;;0.90;;
23730;SDS011;12046;44.702;10.622;2023-04-25T12:11:59;2.33;;;0.77;;
23730;SDS011;12046;44.702;10.622;2023-04-25T12:14:31;1.27;;;1.00;;
23730;SDS011;12046;44.702;10.622;2023-04-25T12:16:59;1.40;;;0.85;;
23730;SDS011;12046;44.702;10.622;2023-04-25T12:19:26;0.95;;;0.90;;
23730;SDS011;12046;44.702;10.622;2023-04-25T12:21:58;3.58;;;1.10;;
23730;SDS011;12046;44.702;10.622;2023-04-25T12:24:25;2.58;;;1.23;;
23730;SDS011;12046;44.702;10.622;2023-04-25T12:27:01;1.60;;;0.98;;
23730;SDS011;12046;44.702;10.622;2023-04-25T12:29:33;3.15;;;1.10;;
23730;SDS011;12046;44.702;10.622;2023-04-25T12:31:59;0.70;;;0.70;;
23730;SDS011;12046;44.702;10.622;2023-04-25T12:34:26;2.17;;;1.00;;
23730;SDS011;12046;44.702;10.622;2023-04-25T12:36:52;1.95;;;1.00;;
23730;SDS011;12046;44.702;10.622;2023-04-25T12:39:19;2.53;;;0.93;;
23730;SDS011;12046;44.702;10.622;2023-04-25T12:41:47;1.40;;;0.70;;
23730;SDS011;12046;44.702;10.622;2023-04-25T12:44:20;1.40;;;0.70;;
23730;SDS011;12046;44.702;10.622;2023-04-25T12:46:49;0.90;;;0.50;;
23730;SDS011;12046;44.702;10.622;2023-04-25T12:49:15;1.75;;;0.90;;
23730;SDS011;12046;44.702;10.622;2023-04-25T12:51:40;2.08;;;0.68;;
23730;SDS011;12046;44.702;10.622;2023-04-25T12:54:06;1.23;;;0.60;;
23730;SDS011;12046;44.702;10.622;2023-04-25T12:56:33;0.88;;;0.70;;
23730;SDS011;12046;44.702;10.622;2023-04-25T12:59:00;1.05;;;0.80;;
23730;SDS011;12046;44.702;10.622;2023-04-25T13:01:28;0.52;;;0.50;;
23730;SDS011;12046;44.702;10.622;2023-04-25T13:03:54;0.63;;;0.52;;
23730;SDS011;12046;44.702;10.622;2023-04-25T13:06:21;0.60;;;0.60;;
23730;SDS011;12046;44.702;10.622;2023-04-25T13:08:47;3.45;;;0.50;;
23730;SDS011;12046;44.702;10.622;2023-04-25T13:11:13;2.08;;;0.70;;
23730;SDS011;12046;44.702;10.622;2023-04-25T13:13:42;1.45;;;0.60;;
23730;SDS011;12046;44.702;10.622;2023-04-25T13:16:09;1.65;;;0.63;;
23730;SDS011;12046;44.702;10.622;2023-04-25T13:18:35;1.98;;;0.80;;
23730;SDS011;12046;44.702;10.622;2023-04-25T13:21:00;1.52;;;1.00;;
23730;SDS011;12046;44.702;10.622;2023-04-25T13:23:27;3.03;;;0.90;;
23730;SDS011;12046;44.702;10.622;2023-04-25T13:25:54;0.60;;;0.60;;
23730;SDS011;12046;44.702;10.622;2023-04-25T13:28:23;0.60;;;0.60;;
23730;SDS011;12046;44.702;10.622;2023-04-25T13:30:49;1.50;;;0.73;;
23730;SDS011;12046;44.702;10.622;2023-04-25T13:33:16;1.33;;;0.70;;
23730;SDS011;12046;44.702;10.622;2023-04-25T13:35:43;1.25;;;0.65;;
23730;SDS011;12046;44.702;10.622;2023-04-25T13:38:11;0.55;;;0.38;;
23730;SDS011;12046;44.702;10.622;2023-04-25T13:40:38;0.85;;;0.70;;
23730;SDS011;12046;44.702;10.622;2023-04-25T13:43:04;1.48;;;0.52;;
23730;SDS011;12046;44.702;10.622;2023-04-25T13:45:31;1.00;;;0.57;;
23730;SDS011;12046;44.702;10.622;2023-04-25T13:47:57;1.50;;;0.68;;
23730;SDS011;12046;44.702;10.622;2023-04-25T13:50:23;1.55;;;0.60;;
23730;SDS011;12046;44.702;10.622;2023-04-25T13:52:48;1.15;;;0.40;;
23730;SDS011;12046;44.702;10.622;2023-04-25T13:55:14;1.55;;;0.60;;
23730;SDS011;12046;44.702;10.622;2023-04-25T13:57:40;0.80;;;0.68;;
23730;SDS011;12046;44.702;10.622;2023-04-25T14:00:06;0.98;;;0.57;;
23730;SDS011;12046;44.702;10.622;2023-04-25T14:02:37;0.63;;;0.63;;
23730;SDS011;12046;44.702;10.622;2023-04-25T14:05:03;3.30;;;0.57;;
23730;SDS011;12046;44.702;10.622;2023-04-25T14:07:30;1.58;;;0.50;;
23730;SDS011;12046;44.702;10.622;2023-04-25T14:09:56;1.27;;;0.63;;
23730;SDS011;12046;44.702;10.622;2023-04-25T14:12:23;0.47;;;0.45;;
23730;SDS011;12046;44.702;10.622;2023-04-25T14:14:49;1.05;;;0.65;;
23730;SDS011;12046;44.702;10.622;2023-04-25T14:17:15;1.65;;;0.55;;
23730;SDS011;12046;44.702;10.622;2023-04-25T14:19:40;0.90;;;0.47;;
23730;SDS011;12046;44.702;10.622;2023-04-25T14:22:10;1.30;;;0.40;;
23730;SDS011;12046;44.702;10.622;2023-04-25T14:24:36;3.20;;;0.75;;
23730;SDS011;12046;44.702;10.622;2023-04-25T14:27:02;0.88;;;0.43;;
23730;SDS011;12046;44.702;10.622;2023-04-25T14:29:28;0.65;;;0.45;;
23730;SDS011;12046;44.702;10.622;2023-04-25T14:31:54;0.90;;;0.40;;
23730;SDS011;12046;44.702;10.622;2023-04-25T14:34:21;0.88;;;0.60;;
23730;SDS011;12046;44.702;10.622;2023-04-25T14:36:47;4.40;;;0.60;;
23730;SDS011;12046;44.702;10.622;2023-04-25T14:39:12;1.55;;;0.80;;
23730;SDS011;12046;44.702;10.622;2023-04-25T14:41:39;1.27;;;0.80;;
23730;SDS011;12046;44.702;10.622;2023-04-25T14:44:05;1.98;;;0.80;;
23730;SDS011;12046;44.702;10.622;2023-04-25T14:46:31;1.15;;;0.57;;
23730;SDS011;12046;44.702;10.622;2023-04-25T14:48:57;0.60;;;0.60;;
23730;SDS011;12046;44.702;10.622;2023-04-25T14:51:22;1.30;;;0.60;;
23730;SDS011;12046;44.702;10.622;2023-04-25T14:53:48;1.05;;;0.60;;